Time;durP1;ratioP1;P1;durP2;ratioP2;P2;SDS_P1;SDS_P2;PMS_P1;PMS_P2;Temp;Humidity;BMP_temperature;BMP_pressure;BME280_temperature;BME280_humidity;BME280_pressure;Samples;Min_cycle;Max_cycle;Signal;HPM_P1;HPM_P2
2022/05/15 00:01:36;;;;;;;2.63;2.03;;;16.30;91.50;;;;;;5031171;28;20234;-90
2022/05/15 00:04:04;;;;;;;3.63;2.20;;;16.30;92.50;;;;;;5031201;28;20296;-90
2022/05/15 00:06:33;;;;;;;2.22;2.05;;;16.20;93.20;;;;;;5031012;28;20233;-91
2022/05/15 00:09:01;;;;;;;2.17;2.03;;;16.20;93.60;;;;;;5032063;28;20240;-90
2022/05/15 00:11:31;;;;;;;8.93;2.30;;;16.20;94.10;;;;;;5031130;28;20206;-89
2022/05/15 00:14:02;;;;;;;3.33;1.98;;;16.10;94.50;;;;;;5031136;28;20226;-90
2022/05/15 00:16:37;;;;;;;3.10;2.55;;;16.10;95.00;;;;;;5031424;28;20218;-89
2022/05/15 00:19:06;;;;;;;3.50;2.65;;;16.10;95.80;;;;;;5030308;28;20202;-90
2022/05/15 00:21:36;;;;;;;2.78;2.58;;;16.10;96.30;;;;;;5030350;28;20260;-90
2022/05/15 00:24:05;;;;;;;6.43;3.08;;;16.10;96.60;;;;;;5030224;28;20254;-89
2022/05/15 00:26:35;;;;;;;2.35;2.20;;;16.10;95.80;;;;;;5030851;28;20238;-90
2022/05/15 00:29:04;;;;;;;2.00;1.90;;;16.10;96.30;;;;;;5031111;28;20214;-89
2022/05/15 00:31:33;;;;;;;1.80;1.70;;;16.10;95.50;;;;;;5030624;28;20209;-90
2022/05/15 00:34:01;;;;;;;2.35;2.15;;;16.00;96.60;;;;;;5030765;28;20289;-90
2022/05/15 00:36:30;;;;;;;3.97;2.70;;;16.10;96.90;;;;;;5030511;28;20245;-90
2022/05/15 00:38:59;;;;;;;2.30;2.10;;;16.00;96.40;;;;;;5030862;28;20260;-89
2022/05/15 00:41:28;;;;;;;2.22;2.13;;;16.00;97.80;;;;;;5030032;28;20322;-90
2022/05/15 00:43:59;;;;;;;2.67;2.30;;;16.00;97.50;;;;;;5030348;28;20312;-90
2022/05/15 00:46:30;;;;;;;2.55;2.13;;;16.00;96.80;;;;;;5030972;28;20272;-90
2022/05/15 00:49:01;;;;;;;4.10;2.10;;;15.90;97.50;;;;;;5030248;28;20202;-90
2022/05/15 00:51:35;;;;;;;2.63;1.80;;;15.90;97.00;;;;;;5030345;28;20222;-89
2022/05/15 00:54:09;;;;;;;2.35;1.75;;;15.90;97.10;;;;;;5030730;28;20310;-90
2022/05/15 00:56:41;;;;;;;3.47;2.53;;;15.90;96.90;;;;;;5030568;28;20256;-89
2022/05/15 00:59:15;;;;;;;2.40;2.20;;;15.90;97.80;;;;;;5030445;28;20282;-90
2022/05/15 01:01:43;;;;;;;2.30;2.10;;;15.90;97.20;;;;;;5014380;28;20268;-91
2022/05/15 01:04:13;;;;;;;2.45;2.25;;;15.80;98.00;;;;;;5030359;28;20210;-90
2022/05/15 01:06:43;;;;;;;3.15;2.90;;;15.80;98.20;;;;;;5030590;28;20294;-89
2022/05/15 01:09:13;;;;;;;4.07;2.75;;;15.80;99.70;;;;;;5030357;28;20256;-90
2022/05/15 01:11:43;;;;;;;4.97;3.40;;;15.80;99.90;;;;;;5031766;28;20191;-90
2022/05/15 01:14:14;;;;;;;3.72;3.40;;;15.80;99.90;;;;;;5032780;28;20242;-89
2022/05/15 01:16:43;;;;;;;5.78;3.33;;;15.80;99.90;;;;;;5033247;28;20272;-90
2022/05/15 01:19:12;;;;;;;4.18;3.08;;;15.80;99.90;;;;;;5032732;28;20218;-90
2022/05/15 01:21:53;;;;;;;4.53;2.95;;;15.80;99.90;;;;;;5032557;28;20219;-90
2022/05/15 01:24:21;;;;;;;2.38;2.28;;;15.80;99.90;;;;;;5033064;28;20226;-89
2022/05/15 01:26:49;;;;;;;5.97;2.72;;;15.80;99.90;;;;;;5032684;28;20302;-90
2022/05/15 01:29:19;;;;;;;3.38;2.63;;;15.70;99.90;;;;;;5034309;28;20241;-90
2022/05/15 01:31:52;;;;;;;2.80;2.60;;;15.70;99.90;;;;;;5035484;28;20198;-90
2022/05/15 01:34:20;;;;;;;3.17;2.85;;;15.70;99.90;;;;;;5036309;28;20326;-90
2022/05/15 01:36:52;;;;;;;2.95;2.65;;;15.70;99.90;;;;;;5035696;28;20289;-90
2022/05/15 01:39:20;;;;;;;4.90;3.47;;;15.70;99.90;;;;;;5035981;28;20223;-90
2022/05/15 01:41:49;;;;;;;6.30;3.15;;;15.70;99.90;;;;;;5036027;28;20249;-90
2022/05/15 01:44:17;;;;;;;3.17;2.92;;;15.60;99.90;;;;;;5035866;28;20300;-90
2022/05/15 01:46:46;;;;;;;7.70;3.00;;;15.60;99.90;;;;;;5036398;28;20222;-90
2022/05/15 01:49:14;;;;;;;2.90;2.70;;;15.60;99.90;;;;;;5036014;28;20229;-91
2022/05/15 01:51:45;;;;;;;2.30;2.20;;;15.60;99.90;;;;;;5036400;28;20198;-89
2022/05/15 01:54:15;;;;;;;3.08;2.78;;;15.50;99.90;;;;;;5036022;28;20221;-90
2022/05/15 01:56:43;;;;;;;3.08;2.47;;;15.50;99.90;;;;;;5036278;28;20285;-90
2022/05/15 01:59:12;;;;;;;2.70;2.50;;;15.50;99.90;;;;;;5035848;28;20195;-91
2022/05/15 02:01:41;;;;;;;2.40;2.20;;;15.50;99.90;;;;;;5035432;28;20245;-90
2022/05/15 02:04:09;;;;;;;4.78;2.50;;;15.40;99.90;;;;;;5035220;28;20327;-89
2022/05/15 02:06:38;;;;;;;2.88;2.67;;;15.40;99.90;;;;;;5026651;28;20207;-90
2022/05/15 02:09:09;;;;;;;3.08;2.45;;;15.30;99.90;;;;;;5035510;28;20237;-90
2022/05/15 02:11:39;;;;;;;2.88;2.58;;;15.40;99.90;;;;;;5035050;28;20209;-90
2022/05/15 02:14:08;;;;;;;3.28;2.75;;;15.30;99.90;;;;;;5034399;28;20249;-90
2022/05/15 02:16:37;;;;;;;3.55;2.55;;;15.30;99.90;;;;;;5035559;28;20203;-90
2022/05/15 02:19:07;;;;;;;3.45;2.95;;;15.20;99.90;;;;;;5035426;28;20294;-88
2022/05/15 02:21:35;;;;;;;3.60;2.47;;;15.20;99.90;;;;;;5035507;28;20273;-90
2022/05/15 02:24:04;;;;;;;2.83;2.60;;;15.20;99.90;;;;;;5035286;28;20222;-94
2022/05/15 02:26:33;;;;;;;2.83;2.35;;;15.20;99.90;;;;;;5035430;28;20199;-94
2022/05/15 02:29:03;;;;;;;4.07;3.15;;;15.20;99.90;;;;;;5035461;28;20206;-94
2022/05/15 02:31:32;;;;;;;2.03;1.80;;;15.30;99.90;;;;;;5035454;28;20195;-94
2022/05/15 02:34:00;;;;;;;3.78;2.15;;;15.30;99.90;;;;;;5037749;28;20222;-95
2022/05/15 02:36:30;;;;;;;2.80;2.35;;;15.30;99.90;;;;;;5036943;28;20232;-94
2022/05/15 02:38:58;;;;;;;2.08;1.92;;;15.30;99.90;;;;;;5036307;28;20195;-94
2022/05/15 02:41:27;;;;;;;2.65;2.45;;;15.20;99.90;;;;;;5036700;28;20249;-94
2022/05/15 02:43:55;;;;;;;2.30;2.10;;;15.30;99.90;;;;;;5035014;28;20223;-95
2022/05/15 02:46:25;;;;;;;5.47;1.95;;;15.30;99.90;;;;;;5034360;28;20269;-96
2022/05/15 02:51:39;;;;;;;2.83;1.73;;;15.30;99.90;;;;;;5034664;28;20195;-95
2022/05/15 02:54:08;;;;;;;16.23;2.53;;;15.30;99.90;;;;;;5034686;28;20219;-95
2022/05/15 02:56:37;;;;;;;5.07;1.75;;;15.30;99.90;;;;;;5034918;28;20203;-95
2022/05/15 02:59:06;;;;;;;2.10;1.90;;;15.30;99.90;;;;;;5034591;28;20203;-95
2022/05/15 03:01:37;;;;;;;1.80;1.70;;;15.20;99.90;;;;;;5034554;28;20256;-94
2022/05/15 03:04:06;;;;;;;2.47;2.10;;;15.20;99.90;;;;;;5034948;28;20268;-96
2022/05/15 03:06:34;;;;;;;1.98;1.80;;;15.20;99.90;;;;;;5034936;28;20269;-95
2022/05/15 03:09:03;;;;;;;2.72;2.25;;;15.20;99.90;;;;;;5035038;28;20206;-96
2022/05/15 03:11:32;;;;;;;1.70;1.60;;;15.10;99.90;;;;;;5035175;28;20221;-94
2022/05/15 03:14:00;;;;;;;8.02;2.53;;;15.10;99.90;;;;;;5034971;28;20230;-96
2022/05/15 03:16:29;;;;;;;2.95;2.20;;;15.10;99.90;;;;;;5035018;28;20276;-95
2022/05/15 03:19:00;;;;;;;2.85;2.20;;;15.00;99.90;;;;;;5034177;28;20213;-95
2022/05/15 03:21:31;;;;;;;2.75;2.13;;;15.00;99.90;;;;;;5034323;28;20287;-94
2022/05/15 03:24:01;;;;;;;1.70;1.60;;;15.00;99.90;;;;;;5034477;28;20242;-94
2022/05/15 03:26:31;;;;;;;2.13;1.92;;;15.00;99.90;;;;;;5034101;28;20202;-95
2022/05/15 03:29:00;;;;;;;3.05;2.03;;;15.00;99.90;;;;;;5034566;28;20194;-95
2022/05/15 03:31:28;;;;;;;1.90;1.80;;;14.90;99.90;;;;;;5034377;28;20198;-95
2022/05/15 03:33:57;;;;;;;2.15;1.70;;;14.90;99.90;;;;;;5034221;28;20215;-93
2022/05/15 03:36:27;;;;;;;3.50;2.13;;;15.00;99.90;;;;;;5034003;28;20252;-93
2022/05/15 03:38:56;;;;;;;2.85;2.25;;;14.90;99.90;;;;;;5033632;28;20210;-95
2022/05/15 03:41:24;;;;;;;2.67;2.35;;;14.90;99.90;;;;;;5033656;28;20226;-95
2022/05/15 03:43:53;;;;;;;3.72;2.50;;;14.90;99.90;;;;;;5033876;28;20226;-95
2022/05/15 03:46:21;;;;;;;2.45;2.25;;;14.90;99.90;;;;;;5034722;28;20295;-94
2022/05/15 03:48:50;;;;;;;2.20;2.00;;;14.90;99.90;;;;;;5036592;28;20195;-95
2022/05/15 03:51:18;;;;;;;2.25;2.13;;;14.90;99.90;;;;;;5037620;28;20198;-94
2022/05/15 03:53:48;;;;;;;2.00;1.90;;;15.00;99.90;;;;;;5037459;28;20392;-94
2022/05/15 03:56:17;;;;;;;2.00;1.90;;;14.90;99.90;;;;;;5034561;28;20211;-92
2022/05/15 03:58:51;;;;;;;4.85;2.45;;;14.90;99.90;;;;;;5033872;28;20195;-93
2022/05/15 04:01:19;;;;;;;2.20;2.00;;;15.00;99.90;;;;;;5033541;28;20241;-93
2022/05/15 04:03:48;;;;;;;3.17;2.47;;;15.00;99.90;;;;;;5033159;28;20310;-95
2022/05/15 04:06:17;;;;;;;2.30;2.10;;;15.00;99.90;;;;;;5035206;28;20201;-95
2022/05/15 04:08:45;;;;;;;2.67;2.45;;;15.00;99.90;;;;;;5039120;28;20194;-94
2022/05/15 04:11:15;;;;;;;3.55;2.85;;;15.10;99.90;;;;;;5038803;28;20201;-95
2022/05/15 04:13:52;;;;;;;2.28;1.98;;;15.20;99.90;;;;;;5039338;28;20218;-95
2022/05/15 04:16:21;;;;;;;3.17;2.20;;;15.30;99.90;;;;;;5034150;28;20202;-95
2022/05/15 04:18:49;;;;;;;3.55;2.30;;;15.30;99.90;;;;;;5033026;28;20206;-94
2022/05/15 04:21:18;;;;;;;2.53;2.33;;;15.40;99.90;;;;;;5033676;28;20206;-95
2022/05/15 04:23:47;;;;;;;2.00;1.88;;;15.50;99.90;;;;;;5033575;28;20225;-94
2022/05/15 04:26:17;;;;;;;2.42;2.22;;;15.50;99.90;;;;;;5033186;28;20248;-93
2022/05/15 04:28:46;;;;;;;2.63;2.17;;;15.60;99.90;;;;;;5033005;28;20202;-94
2022/05/15 04:31:17;;;;;;;2.88;2.22;;;15.60;99.90;;;;;;5033138;28;20202;-95
2022/05/15 04:33:46;;;;;;;4.57;2.10;;;15.70;99.90;;;;;;5033440;28;20214;-95
2022/05/15 04:36:14;;;;;;;2.00;1.90;;;15.70;99.90;;;;;;5032988;28;20226;-95
2022/05/15 04:38:43;;;;;;;2.45;2.22;;;15.70;99.90;;;;;;5032765;28;20206;-95
2022/05/15 04:41:11;;;;;;;2.40;2.00;;;15.80;99.90;;;;;;5029228;28;20268;-95
2022/05/15 04:43:41;;;;;;;2.85;2.60;;;15.90;99.90;;;;;;5032724;28;20241;-95
2022/05/15 04:46:10;;;;;;;2.40;2.20;;;15.90;99.90;;;;;;5032839;28;20348;-94
2022/05/15 04:48:39;;;;;;;2.45;2.13;;;16.00;99.90;;;;;;5033230;28;20202;-95
2022/05/15 04:51:08;;;;;;;2.05;1.95;;;16.00;99.90;;;;;;5032816;28;20198;-95
2022/05/15 04:53:36;;;;;;;3.58;2.35;;;16.10;99.90;;;;;;5033225;28;20229;-95
2022/05/15 04:56:05;;;;;;;2.33;2.13;;;16.20;99.90;;;;;;5032989;28;20214;-94
2022/05/15 04:58:34;;;;;;;3.00;2.72;;;16.20;99.90;;;;;;5033150;28;20198;-93
2022/05/15 05:01:03;;;;;;;4.55;2.78;;;16.30;99.90;;;;;;5033080;28;20226;-95
2022/05/15 05:03:32;;;;;;;1.88;1.77;;;16.30;99.90;;;;;;5032189;28;20246;-93
2022/05/15 05:06:01;;;;;;;2.88;2.33;;;16.30;99.90;;;;;;5039181;28;20206;-94
2022/05/15 05:08:29;;;;;;;4.53;2.95;;;16.40;99.90;;;;;;5037022;28;20293;-96
2022/05/15 05:10:58;;;;;;;2.10;2.00;;;16.40;99.90;;;;;;5036366;28;20225;-95
2022/05/15 05:13:27;;;;;;;2.28;2.13;;;16.50;99.90;;;;;;5036607;28;20291;-93
2022/05/15 05:15:55;;;;;;;2.30;2.15;;;16.50;99.90;;;;;;5036474;28;20218;-92
2022/05/15 05:18:25;;;;;;;1.95;1.85;;;16.60;99.90;;;;;;5036242;28;20205;-93
2022/05/15 05:20:54;;;;;;;2.15;2.00;;;16.60;99.90;;;;;;5017380;28;20227;-93
2022/05/15 05:23:22;;;;;;;3.38;2.13;;;16.60;99.90;;;;;;5024927;28;20214;-95
2022/05/15 05:25:51;;;;;;;2.53;2.30;;;16.60;99.90;;;;;;5036956;28;20194;-93
2022/05/15 05:28:20;;;;;;;2.30;2.10;;;16.70;99.90;;;;;;5036712;28;20226;-94
2022/05/15 05:30:49;;;;;;;1.52;1.45;;;16.80;99.90;;;;;;5036207;28;20218;-93
2022/05/15 05:33:17;;;;;;;3.13;2.35;;;16.80;99.90;;;;;;5036427;28;20218;-95
2022/05/15 05:35:50;;;;;;;2.80;2.13;;;16.90;99.90;;;;;;5036218;28;20233;-94
2022/05/15 05:38:19;;;;;;;8.32;2.25;;;16.90;99.90;;;;;;5035823;28;20194;-93
2022/05/15 05:40:47;;;;;;;1.98;1.85;;;17.00;99.90;;;;;;5035091;28;20238;-95
2022/05/15 05:43:16;;;;;;;2.30;2.10;;;17.10;99.90;;;;;;5036542;28;20313;-94
2022/05/15 05:45:45;;;;;;;1.88;1.73;;;17.10;99.90;;;;;;5035409;28;20206;-93
2022/05/15 05:48:13;;;;;;;2.83;2.17;;;17.10;99.90;;;;;;5036087;28;20234;-94
2022/05/15 05:50:42;;;;;;;4.07;2.20;;;17.10;99.90;;;;;;5035141;28;20285;-94
2022/05/15 05:53:12;;;;;;;2.83;2.20;;;17.20;99.90;;;;;;5035382;28;20234;-94
2022/05/15 05:55:41;;;;;;;2.10;2.00;;;17.30;99.90;;;;;;5036827;28;20242;-93
2022/05/15 05:58:09;;;;;;;2.25;2.03;;;17.30;99.90;;;;;;5037117;28;20269;-94
2022/05/15 06:00:39;;;;;;;2.20;2.00;;;17.40;99.90;;;;;;5035860;28;20207;-93
2022/05/15 06:05:56;;;;;;;2.28;2.08;;;17.50;99.90;;;;;;5036154;28;20201;-93
2022/05/15 06:08:28;;;;;;;2.40;2.20;;;17.60;99.90;;;;;;5036516;28;20199;-94
2022/05/15 06:10:57;;;;;;;2.85;2.50;;;17.70;99.90;;;;;;5035638;28;20208;-93
2022/05/15 06:13:26;;;;;;;4.30;2.28;;;17.80;99.90;;;;;;5038425;28;20253;-88
2022/05/15 06:15:55;;;;;;;1.90;1.80;;;17.80;99.90;;;;;;5034933;28;20210;-88
2022/05/15 06:18:24;;;;;;;2.58;2.38;;;17.80;99.90;;;;;;5035245;28;20199;-89
2022/05/15 06:20:52;;;;;;;2.22;2.03;;;17.90;99.90;;;;;;5035834;28;20203;-89
2022/05/15 06:23:21;;;;;;;3.40;2.33;;;17.90;99.90;;;;;;5034928;28;20318;-95
2022/05/15 06:25:51;;;;;;;3.08;2.25;;;18.00;99.90;;;;;;5035810;28;20226;-88
2022/05/15 06:28:19;;;;;;;2.92;2.60;;;18.10;99.90;;;;;;5035571;28;20227;-87
2022/05/15 06:30:48;;;;;;;2.05;1.90;;;18.10;99.90;;;;;;5035114;28;20467;-88
2022/05/15 06:33:16;;;;;;;5.30;2.42;;;18.30;99.90;;;;;;5040882;28;20295;-90
2022/05/15 06:35:45;;;;;;;2.28;1.90;;;18.40;99.90;;;;;;5055887;28;20202;-92
2022/05/15 06:38:14;;;;;;;2.47;2.28;;;18.50;99.90;;;;;;5034062;28;20230;-87
2022/05/15 06:40:42;;;;;;;3.33;2.20;;;18.70;99.90;;;;;;5034428;28;20218;-90
2022/05/15 06:43:12;;;;;;;2.83;2.40;;;18.80;99.90;;;;;;5034559;28;20240;-90
2022/05/15 06:45:41;;;;;;;2.60;2.38;;;19.00;99.90;;;;;;5034397;28;20213;-91
2022/05/15 06:48:09;;;;;;;3.00;2.80;;;19.10;99.90;;;;;;5034890;28;20289;-88
2022/05/15 06:50:38;;;;;;;4.63;2.67;;;19.20;99.90;;;;;;5034245;28;20227;-89
2022/05/15 06:53:12;;;;;;;2.28;2.08;;;19.40;99.90;;;;;;5034442;28;20245;-89
2022/05/15 06:57:28;;;;;;;2.90;2.70;;;19.60;99.90;;;;;;5033911;28;20296;-89
2022/05/15 06:58:33;;;;;;;3.08;2.78;;;19.70;99.90;;;;;;5034440;28;20268;-89
2022/05/15 07:01:02;;;;;;;5.57;2.35;;;20.00;99.90;;;;;;5034139;28;20214;-90
2022/05/15 07:03:30;;;;;;;2.83;2.63;;;20.30;99.90;;;;;;5034010;28;20256;-89
2022/05/15 07:06:02;;;;;;;3.50;3.20;;;20.50;99.90;;;;;;5034124;28;20214;-90
2022/05/15 07:08:31;;;;;;;3.47;2.78;;;20.70;99.90;;;;;;5034396;28;20275;-89
2022/05/15 07:10:59;;;;;;;3.88;3.22;;;20.90;99.90;;;;;;5033721;28;20230;-89
2022/05/15 07:13:27;;;;;;;2.65;2.45;;;21.20;99.90;;;;;;5033956;28;20250;-89
2022/05/15 07:15:57;;;;;;;2.67;2.40;;;21.50;99.90;;;;;;5034283;28;20201;-88
2022/05/15 07:18:26;;;;;;;3.92;2.80;;;21.90;99.80;;;;;;5033807;28;20198;-82
2022/05/15 07:20:56;;;;;;;3.92;2.60;;;22.20;99.30;;;;;;5034099;28;20205;-94
2022/05/15 07:23:26;;;;;;;3.10;2.28;;;22.80;97.80;;;;;;5015041;28;20222;-92
2022/05/15 07:25:59;;;;;;;3.35;3.05;;;23.60;97.80;;;;;;5033848;28;20194;-78
2022/05/15 07:28:27;;;;;;;3.80;2.45;;;24.90;94.50;;;;;;5034486;28;20206;-79
2022/05/15 07:30:58;;;;;;;3.17;2.78;;;25.80;91.80;;;;;;5034174;28;20217;-78
2022/05/15 07:33:28;;;;;;;3.15;2.88;;;26.90;89.00;;;;;;5033653;28;20226;-77
2022/05/15 07:35:57;;;;;;;12.88;5.47;;;28.10;81.70;;;;;;5023699;28;20234;-77
2022/05/15 07:38:25;;;;;;;4.13;3.60;;;29.50;75.70;;;;;;5014401;28;20295;-77
2022/05/15 07:40:54;;;;;;;4.35;3.95;;;30.90;71.00;;;;;;5030968;28;20233;-77
2022/05/15 07:43:22;;;;;;;2.70;2.40;;;32.50;68.10;;;;;;5033466;28;20289;-77
2022/05/15 07:45:58;;;;;;;2.38;2.17;;;33.20;60.30;;;;;;5033615;28;20261;-84
2022/05/15 07:48:26;;;;;;;2.22;2.03;;;34.40;57.00;;;;;;5030200;28;20203;-90
2022/05/15 07:50:56;;;;;;;2.28;2.15;;;35.20;52.70;;;;;;5033526;28;20206;-88
2022/05/15 07:53:24;;;;;;;2.85;2.65;;;35.20;50.80;;;;;;5036865;28;20218;-87
2022/05/15 07:55:55;;;;;;;2.47;2.28;;;35.50;50.60;;;;;;5033856;28;20255;-92
2022/05/15 07:58:25;;;;;;;3.58;2.45;;;35.20;50.30;;;;;;5034111;28;20274;-92
2022/05/15 08:00:57;;;;;;;1.90;1.75;;;35.50;51.20;;;;;;5033311;28;20230;-91
2022/05/15 08:03:25;;;;;;;4.07;2.17;;;36.10;50.80;;;;;;5033503;28;20242;-92
2022/05/15 08:08:40;;;;;;;2.20;2.00;;;36.60;46.00;;;;;;5013979;28;20202;-92
2022/05/15 08:11:08;;;;;;;2.38;2.22;;;36.90;46.20;;;;;;5019388;28;20217;-91
2022/05/15 08:13:36;;;;;;;3.80;2.80;;;36.80;45.50;;;;;;5035837;28;20225;-92
2022/05/15 08:16:06;;;;;;;2.22;2.03;;;37.10;47.70;;;;;;5033669;28;20297;-91
2022/05/15 08:24:08;;;;;;;1.80;1.70;;;37.90;43.20;;;;;;5034359;28;20217;-91
2022/05/15 08:26:37;;;;;;;2.85;2.15;;;37.80;44.70;;;;;;5034049;28;20245;-92
2022/05/15 08:29:06;;;;;;;3.30;2.42;;;38.30;42.20;;;;;;5033122;28;20288;-91
2022/05/15 08:31:36;;;;;;;2.22;2.00;;;38.40;41.80;;;;;;5033314;28;20206;-90
2022/05/15 08:34:04;;;;;;;2.15;1.95;;;38.70;42.50;;;;;;5032325;28;20224;-91
2022/05/15 08:36:33;;;;;;;3.65;2.00;;;38.90;39.70;;;;;;5033609;28;20233;-91
2022/05/15 08:39:01;;;;;;;2.83;2.00;;;39.20;39.70;;;;;;5032862;28;20236;-92
2022/05/15 08:41:42;;;;;;;3.30;2.53;;;39.00;39.20;;;;;;5032968;28;20237;-91
2022/05/15 08:44:14;;;;;;;2.22;2.05;;;38.90;39.70;;;;;;5032601;28;20309;-91
2022/05/15 08:47:07;;;;;;;2.35;2.08;;;38.90;39.30;;;;;;5033063;28;20198;-92
2022/05/15 08:49:38;;;;;;;2.15;1.95;;;38.40;39.40;;;;;;5033322;28;20218;-92
2022/05/15 08:52:13;;;;;;;1.95;1.85;;;38.30;39.80;;;;;;5032784;28;20225;-91
2022/05/15 08:54:50;;;;;;;2.05;1.92;;;38.10;39.70;;;;;;5033196;28;20221;-91
2022/05/15 08:57:26;;;;;;;1.77;1.67;;;37.90;39.30;;;;;;5032979;28;20289;-91
2022/05/15 08:59:56;;;;;;;1.52;1.50;;;37.70;39.90;;;;;;5033345;28;20205;-89
2022/05/15 09:02:26;;;;;;;2.40;1.90;;;38.00;39.50;;;;;;5032658;28;20218;-90
2022/05/15 09:04:55;;;;;;;2.50;1.63;;;38.70;38.30;;;;;;5032879;28;20271;-89
2022/05/15 09:07:40;;;;;;;2.05;1.95;;;39.20;36.50;;;;;;5032997;28;20293;-89
2022/05/15 09:10:21;;;;;;;5.22;1.98;;;38.90;35.60;;;;;;5032909;28;20229;-94
2022/05/15 09:13:04;;;;;;;1.70;1.60;;;39.40;35.50;;;;;;5042713;28;20221;-89
2022/05/15 09:15:33;;;;;;;1.83;1.70;;;38.80;34.30;;;;;;5052786;28;20276;-89
2022/05/15 09:18:10;;;;;;;2.03;1.83;;;38.60;36.70;;;;;;5038509;28;20207;-89
2022/05/15 09:20:56;;;;;;;2.30;1.95;;;38.50;35.50;;;;;;5013399;28;20262;-89
2022/05/15 09:23:29;;;;;;;2.20;1.73;;;38.40;34.70;;;;;;5041088;28;20243;-90
2022/05/15 09:26:00;;;;;;;2.05;1.73;;;38.50;35.50;;;;;;5052603;28;20267;-89
2022/05/15 09:28:30;;;;;;;5.85;1.92;;;37.90;36.30;;;;;;5036729;28;20222;-89
2022/05/15 09:31:00;;;;;;;1.98;1.70;;;37.60;36.20;;;;;;5032930;28;20202;-89
2022/05/15 09:33:34;;;;;;;1.80;1.70;;;37.50;35.70;;;;;;5032125;28;20214;-89
2022/05/15 09:36:25;;;;;;;2.42;1.92;;;37.40;36.70;;;;;;5015580;28;20232;-89
2022/05/15 09:39:17;;;;;;;2.40;2.20;;;37.10;37.10;;;;;;5032752;28;20201;-89
2022/05/15 09:44:44;;;;;;;1.45;1.35;;;36.70;36.70;;;;;;5032354;28;20229;-89
2022/05/15 09:47:27;;;;;;;1.70;1.60;;;37.10;36.30;;;;;;5032607;28;20206;-89
2022/05/15 09:49:56;;;;;;;1.77;1.52;;;37.10;36.10;;;;;;5033007;28;20194;-89
2022/05/15 09:52:36;;;;;;;1.73;1.63;;;37.00;34.80;;;;;;5045362;28;20245;-90
2022/05/15 09:55:12;;;;;;;2.25;1.90;;;36.20;36.60;;;;;;5036450;28;20206;-89
2022/05/15 09:57:54;;;;;;;3.05;1.90;;;35.70;35.70;;;;;;5035702;28;20224;-89
2022/05/15 10:00:23;;;;;;;2.38;1.77;;;35.40;37.90;;;;;;5027135;28;20202;-89
2022/05/15 10:02:54;;;;;;;2.20;2.00;;;35.70;38.00;;;;;;5035950;28;20309;-89
2022/05/15 10:05:27;;;;;;;1.83;1.73;;;35.60;39.10;;;;;;5035783;28;20234;-89
2022/05/15 10:08:01;;;;;;;2.83;2.00;;;35.60;38.90;;;;;;5036039;28;20228;-89
2022/05/15 10:10:33;;;;;;;2.33;1.75;;;35.70;41.40;;;;;;5035284;28;20218;-89
2022/05/15 10:13:09;;;;;;;2.20;2.00;;;36.10;39.70;;;;;;5036109;28;20253;-89
2022/05/15 10:15:41;;;;;;;1.67;1.58;;;36.10;39.50;;;;;;5035764;28;20206;-89
2022/05/15 10:18:13;;;;;;;1.70;1.60;;;36.40;37.20;;;;;;5035493;28;20198;-90
2022/05/15 10:20:46;;;;;;;2.03;1.83;;;36.30;38.80;;;;;;5035748;28;20197;-90
2022/05/15 10:23:17;;;;;;;2.28;2.05;;;36.30;39.30;;;;;;5036120;28;20248;-90
2022/05/15 10:25:56;;;;;;;2.42;2.22;;;36.40;40.60;;;;;;5036301;28;20233;-90
2022/05/15 10:28:33;;;;;;;2.30;2.10;;;36.50;38.60;;;;;;5035865;28;20202;-89
2022/05/15 10:31:07;;;;;;;1.77;1.55;;;36.70;39.00;;;;;;5034716;28;20217;-89
2022/05/15 10:33:39;;;;;;;2.45;1.77;;;36.70;37.80;;;;;;5035058;28;20217;-89
2022/05/15 10:36:23;;;;;;;2.17;1.95;;;36.10;39.20;;;;;;5035711;28;20229;-90
2022/05/15 10:39:02;;;;;;;1.83;1.73;;;36.00;39.90;;;;;;5035405;28;20214;-89
2022/05/15 10:41:38;;;;;;;1.80;1.70;;;35.80;40.10;;;;;;5034869;28;20297;-89
2022/05/15 10:44:34;;;;;;;1.92;1.80;;;35.90;39.90;;;;;;5035657;28;20225;-89
2022/05/15 10:47:08;;;;;;;1.73;1.63;;;35.50;39.10;;;;;;5020623;28;20308;-89
2022/05/15 10:50:01;;;;;;;11.18;1.90;;;35.50;40.90;;;;;;5038137;28;20248;-89
2022/05/15 10:52:47;;;;;;;1.85;1.75;;;35.80;41.80;;;;;;5032658;28;20225;-89
2022/05/15 10:58:34;;;;;;;2.53;1.90;;;36.20;39.50;;;;;;5049391;28;20205;-90
2022/05/15 11:01:10;;;;;;;1.98;1.67;;;36.30;37.50;;;;;;5054590;28;20211;-89
2022/05/15 11:03:55;;;;;;;2.22;2.05;;;36.20;39.10;;;;;;5043308;28;20259;-89
2022/05/15 11:06:48;;;;;;;4.03;2.30;;;36.20;40.80;;;;;;5044695;28;20368;-89
2022/05/15 11:09:25;;;;;;;2.33;2.13;;;36.20;40.10;;;;;;5041559;28;20263;-89
2022/05/15 11:12:07;;;;;;;2.70;2.00;;;35.80;39.50;;;;;;5038421;28;20201;-88
2022/05/15 11:14:44;;;;;;;2.60;2.17;;;35.40;40.20;;;;;;5053092;28;20193;-89
2022/05/15 11:17:18;;;;;;;2.17;1.98;;;35.50;39.30;;;;;;5041973;28;20231;-89
2022/05/15 11:19:47;;;;;;;2.95;1.90;;;35.10;38.90;;;;;;5034364;28;20228;-88
2022/05/15 11:22:25;;;;;;;5.85;2.22;;;35.30;39.70;;;;;;5034287;28;20210;-90
2022/05/15 11:25:03;;;;;;;3.00;2.00;;;35.50;40.20;;;;;;5039766;28;20280;-89
2022/05/15 11:27:42;;;;;;;2.03;1.92;;;35.60;41.70;;;;;;5034007;28;20240;-88
2022/05/15 11:30:15;;;;;;;2.78;2.20;;;35.20;40.80;;;;;;5037959;28;20313;-89
2022/05/15 11:33:00;;;;;;;2.03;1.90;;;35.50;40.50;;;;;;5054297;28;20229;-89
2022/05/15 11:35:38;;;;;;;7.05;2.00;;;35.60;41.30;;;;;;5031003;28;20235;-89
2022/05/15 11:38:19;;;;;;;2.00;1.83;;;35.70;37.70;;;;;;5038256;28;20222;-89
2022/05/15 11:40:51;;;;;;;2.10;1.90;;;35.70;37.80;;;;;;5033719;28;20305;-89
2022/05/15 11:44:03;;;;;;;1.92;1.83;;;35.40;37.80;;;;;;5034573;28;20308;-89
2022/05/15 11:47:20;;;;;;;2.38;1.75;;;34.90;38.40;;;;;;5030606;28;20241;-90
2022/05/15 11:50:09;;;;;;;3.08;2.10;;;34.80;39.70;;;;;;4998412;28;20243;-89
2022/05/15 11:52:41;;;;;;;2.05;1.80;;;35.20;40.60;;;;;;5037154;28;20241;-88
2022/05/15 11:55:38;;;;;;;2.47;1.75;;;35.30;41.30;;;;;;5037044;28;20297;-89
2022/05/15 11:58:27;;;;;;;2.10;1.90;;;35.20;40.50;;;;;;5045747;28;20240;-89
2022/05/15 12:01:05;;;;;;;3.38;2.33;;;35.00;40.60;;;;;;5034208;28;20220;-88
2022/05/15 12:03:58;;;;;;;2.50;2.08;;;35.00;41.50;;;;;;5035971;28;20230;-89
2022/05/15 12:06:29;;;;;;;1.80;1.70;;;34.50;41.20;;;;;;5028376;28;20214;-88
2022/05/15 12:09:33;;;;;;;2.63;2.33;;;34.50;41.40;;;;;;5041147;28;20201;-90
2022/05/15 12:12:34;;;;;;;2.83;2.15;;;35.00;40.60;;;;;;5041100;28;20220;-89
2022/05/15 12:15:08;;;;;;;2.42;2.15;;;35.00;40.20;;;;;;5040383;28;20209;-89
2022/05/15 12:17:39;;;;;;;2.35;2.05;;;35.00;40.90;;;;;;5043333;28;20272;-88
2022/05/15 12:20:15;;;;;;;2.67;1.98;;;34.80;40.10;;;;;;5046991;28;20205;-89
2022/05/15 12:22:48;;;;;;;2.05;1.85;;;34.60;40.50;;;;;;5053002;28;20228;-88
2022/05/15 12:25:17;;;;;;;2.45;2.00;;;34.50;41.20;;;;;;5042203;28;20257;-89
2022/05/15 12:28:50;;;;;;;3.45;2.22;;;34.20;39.20;;;;;;5041442;28;20213;-89
2022/05/15 12:30:48;;;;;;;3.45;2.28;;;34.00;39.90;;;;;;5033612;28;20237;-89
2022/05/15 12:33:22;;;;;;;1.83;1.73;;;33.30;41.00;;;;;;5032886;28;20449;-89
2022/05/15 12:35:50;;;;;;;9.68;2.10;;;33.00;40.00;;;;;;5033285;28;20237;-89
2022/05/15 12:38:22;;;;;;;2.88;1.88;;;32.40;40.20;;;;;;5033474;28;20305;-89
2022/05/15 12:40:59;;;;;;;2.60;1.92;;;32.10;40.50;;;;;;5032742;28;20233;-89
2022/05/15 12:43:29;;;;;;;2.25;1.77;;;32.00;41.60;;;;;;5033400;28;20280;-89
2022/05/15 12:46:00;;;;;;;2.28;1.83;;;32.20;41.50;;;;;;5037864;28;20248;-89
2022/05/15 12:48:29;;;;;;;4.45;2.00;;;32.00;40.50;;;;;;5027643;28;20209;-90
2022/05/15 12:51:02;;;;;;;2.55;2.03;;;31.70;41.70;;;;;;5032485;28;20202;-89
2022/05/15 12:53:33;;;;;;;2.00;1.80;;;31.50;42.00;;;;;;5032840;28;20246;-89
2022/05/15 12:56:10;;;;;;;5.50;2.80;;;31.30;42.50;;;;;;5052373;28;20225;-89
2022/05/15 12:58:41;;;;;;;1.90;1.80;;;30.80;41.90;;;;;;5037472;28;20201;-89
2022/05/15 13:01:13;;;;;;;2.58;2.38;;;31.00;43.10;;;;;;5044171;28;20237;-89
2022/05/15 13:03:42;;;;;;;2.65;2.13;;;31.10;44.50;;;;;;5046155;28;20226;-88
2022/05/15 13:06:11;;;;;;;2.88;2.35;;;31.30;44.80;;;;;;5041184;28;20229;-89
2022/05/15 13:08:50;;;;;;;2.58;2.20;;;31.50;43.80;;;;;;5033538;28;20234;-89
2022/05/15 13:11:21;;;;;;;4.35;3.08;;;31.70;42.90;;;;;;5032552;28;20241;-88
2022/05/15 13:13:52;;;;;;;4.18;3.00;;;32.10;44.80;;;;;;5032976;28;20246;-84
2022/05/15 13:16:24;;;;;;;2.58;2.35;;;32.30;43.30;;;;;;5039999;28;20218;-91
2022/05/15 13:18:54;;;;;;;6.60;3.90;;;32.60;44.20;;;;;;5035574;28;20198;-87
2022/05/15 13:21:26;;;;;;;2.75;2.28;;;32.70;42.70;;;;;;5041979;28;20217;-90
2022/05/15 13:23:55;;;;;;;3.28;2.40;;;32.60;42.50;;;;;;5053054;28;20305;-92
2022/05/15 13:26:27;;;;;;;3.80;2.40;;;32.50;43.70;;;;;;5041863;28;20206;-90
2022/05/15 13:29:00;;;;;;;3.65;2.40;;;32.60;43.70;;;;;;5042453;28;20206;-90
2022/05/15 13:31:32;;;;;;;2.22;2.03;;;32.60;43.40;;;;;;5036324;28;20284;-90